Terminal Aerodrome Forecast
Issued by NWS Blacksburg, VA

Home | Current Version | Previous Version | Text Only | Print | Product List | Glossary On
Versions: 1 2 3 4 5 6 7 8 9 10 11 12 13 14 15 16 17 18 19 20 21 22 23 24 25 26 27 28 29 30 31 32
000
FTUS41 KRNK 301533 AAA
TAFLYH
TAF AMD
KLYH 301533Z 3016/3112 00000KT P6SM OVC009
     FM301600 18003KT P6SM BKN015
     FM301900 19006KT P6SM BKN035
     FM310100 18004KT P6SM SCT250=

USA.gov is the U.S. government's official web portal to all federal, state and local government web resources and services.